Portada
METAR-TAF:

METAR-TAF

Aeroports :

Karachi, Pakistan

latitud: 24-54N, longitud: 067-08E, altitud: 21 m

Observació

L'informe es va fer fa 39 minuts, a les 16:55 UTC
Vent 7 kt del Oest
Temperatura 17°C
Humitat 39%
Pressió 1015 hPa
Visibilitat: 6000 m

METAR: OPKC 281655Z 27007KT 6000 NSC 17/03 Q1015 NOSIG

Hora: 22:34 (17:34 UTC)

Pronòstic

L'informe es va fer fa 2 hores i 4 minuts, a les 15:30 UTC
Pronòstic vàlid del 28 a les 18 UTC al 29 a les 24 UTC
Vent 5 kt del Oest amb ràfegues de 15 kt
Visibilitat: 6000 m
Temporalment
l' 29 a les 00 UTC al 29 a les 04 UTC
Vent 10 kt del Nord/Nord-Est
Visibilitat: 4000 m
fum

TAF: OPKC 281530Z 2818/2924 26005G15KT 6000 NSC TEMPO 2900/2904 03010KT 4000 FU NSC

Observacions i pronòstics meteorològics de més de 4000 aeroports (METAR i TAF).

Les estacions disponibles són els punts grocs i vermells al mapa.

Posi el ratolí al punt desitjat per veure el nom de l'estació.

Feu clic per veure les observacions i els pronòstics meteorològics.

Per canviar el mapa: feu clic els botons verds amb una creu de color negre per apropar; al botó verd amb un guió per allunyar la imatge; o en les fletxes verdes per a mapes adjacents.


METAR-TAF: